Nicholls Rivulet, Australia

8:45 AM AEDT on December 13, 2017 (GMT +1100)
LilBOMOC | | Change Station

Elev 354 ft 43.10 °S, 147.21 °E | Updated 11 seconds ago

Mostly Cloudy
Mostly Cloudy
66.9 °F
Feels Like 66.9 °F
N
0.0
Wind Variable Wind from NW
Gusts 0.0 mph

Today
High -- | Low -- °F
--% Chance of Precip.
Yesterday
High -- | Low -- °F
Precip. -- in
Pressure 29.80 in
Visibility 6.2 miles
Clouds Few 2000 ft
Mostly Cloudy 25000 ft
Dew Point 63 °F
Humidity 86%
Rainfall 0.00 in
Snow Depth Not available.
5:25 AM 8:45 PM
Waning Crescent, 25% visible
METAR YMHB 122130Z 34010KT 9999 FEW020 BKN250 20/12 Q1009 RF00.0/000.0
Pressure 29.80 in
Visibility 6.2 miles
Clouds Few 2000 ft
Mostly Cloudy 25000 ft
Dew Point 63 °F
Humidity 86%
Rainfall 0.00 in
Snow Depth Not available.
5:25 AM 8:45 PM
Waning Crescent, 25% visible
METAR YMHB 122130Z 34010KT 9999 FEW020 BKN250 20/12 Q1009 RF00.0/000.0

Get Severe Weather Alerts

Thanks for signing up!

Be on the lookout for a verification email in your inbox.

You'll start receiving the daily forecast at 6 AM.

×

10-Day Weather Forecast

×

Almanac

Astronomy

Dec. 13, 2017 Rise Set
Actual Time
Civil Twilight
Nautical Twilight
Astronomical Twilight
Moon
Length of Visible Light
Length of Day
Tomorrow will be .
, % of the Moon is Illuminated

Today's Extremes

Country Highs Country Lows

Community

WunderPhotos

Category 6

Welcome to Category 6. This is the collective home for Weather Underground's featured writeups by Dr. Jeff Masters (right), Bob Henson (left), Chris Burt, and other regular contributors.

Nearby

Air Quality

  Air Quality AQ Index Pollutant
Not available.

Snow Depth

Station Depth Elevation

Earthquake Activity

City Distance Mag. Time & Date
Minimum magnitude displayed is 2.5.

Coastal Water Temperatures

Place Temperature

Stations

Nearby Weather Stations

Station Location Temp. Windchill Dew Point Humidity Wind Precip. Elev Updated Type